sensor_id;sensor_type;location;lat;lon;timestamp;P1;durP1;ratioP1;P2;durP2;ratioP2
27209;SDS011;14721;42.668;23.386;2023-02-10T00:01:48;14.67;;;5.33;;
27209;SDS011;14721;42.668;23.386;2023-02-10T00:04:13;8.77;;;4.10;;
27209;SDS011;14721;42.668;23.386;2023-02-10T00:06:39;5.73;;;3.00;;
27209;SDS011;14721;42.668;23.386;2023-02-10T00:09:06;11.77;;;4.73;;
27209;SDS011;14721;42.668;23.386;2023-02-10T00:11:32;12.47;;;4.77;;
27209;SDS011;14721;42.668;23.386;2023-02-10T00:14:16;8.67;;;4.50;;
27209;SDS011;14721;42.668;23.386;2023-02-10T00:16:43;10.63;;;3.93;;
27209;SDS011;14721;42.668;23.386;2023-02-10T00:19:09;9.77;;;4.03;;
27209;SDS011;14721;42.668;23.386;2023-02-10T00:21:35;9.20;;;3.13;;
27209;SDS011;14721;42.668;23.386;2023-02-10T00:24:01;10.13;;;4.37;;
27209;SDS011;14721;42.668;23.386;2023-02-10T00:26:27;12.77;;;5.10;;
27209;SDS011;14721;42.668;23.386;2023-02-10T00:28:52;10.67;;;3.53;;
27209;SDS011;14721;42.668;23.386;2023-02-10T00:31:18;8.90;;;3.70;;
27209;SDS011;14721;42.668;23.386;2023-02-10T00:33:44;9.30;;;4.67;;
27209;SDS011;14721;42.668;23.386;2023-02-10T00:36:11;10.47;;;5.57;;
27209;SDS011;14721;42.668;23.386;2023-02-10T00:38:38;8.80;;;3.43;;
27209;SDS011;14721;42.668;23.386;2023-02-10T00:41:05;8.10;;;3.73;;
27209;SDS011;14721;42.668;23.386;2023-02-10T00:43:33;7.03;;;3.83;;
27209;SDS011;14721;42.668;23.386;2023-02-10T00:46:02;5.40;;;3.87;;
27209;SDS011;14721;42.668;23.386;2023-02-10T00:48:28;5.40;;;3.47;;
27209;SDS011;14721;42.668;23.386;2023-02-10T00:50:54;5.90;;;2.73;;
27209;SDS011;14721;42.668;23.386;2023-02-10T00:53:20;9.90;;;3.50;;
27209;SDS011;14721;42.668;23.386;2023-02-10T00:55:47;9.43;;;3.40;;
27209;SDS011;14721;42.668;23.386;2023-02-10T00:58:13;13.90;;;3.40;;
27209;SDS011;14721;42.668;23.386;2023-02-10T01:00:38;9.67;;;4.00;;
27209;SDS011;14721;42.668;23.386;2023-02-10T01:03:04;10.97;;;3.73;;
27209;SDS011;14721;42.668;23.386;2023-02-10T01:05:29;8.57;;;4.40;;
27209;SDS011;14721;42.668;23.386;2023-02-10T01:07:55;7.07;;;3.67;;
27209;SDS011;14721;42.668;23.386;2023-02-10T01:10:21;13.80;;;3.83;;
27209;SDS011;14721;42.668;23.386;2023-02-10T01:12:47;9.57;;;3.90;;
27209;SDS011;14721;42.668;23.386;2023-02-10T01:15:13;10.17;;;3.63;;
27209;SDS011;14721;42.668;23.386;2023-02-10T01:17:39;7.07;;;3.53;;
27209;SDS011;14721;42.668;23.386;2023-02-10T01:20:05;9.37;;;4.47;;
27209;SDS011;14721;42.668;23.386;2023-02-10T01:22:31;8.13;;;3.60;;
27209;SDS011;14721;42.668;23.386;2023-02-10T01:24:58;7.07;;;4.80;;
27209;SDS011;14721;42.668;23.386;2023-02-10T01:27:24;9.67;;;4.63;;
27209;SDS011;14721;42.668;23.386;2023-02-10T01:29:50;8.53;;;4.10;;
27209;SDS011;14721;42.668;23.386;2023-02-10T01:32:16;12.10;;;3.17;;
27209;SDS011;14721;42.668;23.386;2023-02-10T01:34:42;14.03;;;4.47;;
27209;SDS011;14721;42.668;23.386;2023-02-10T01:37:08;11.90;;;3.77;;
27209;SDS011;14721;42.668;23.386;2023-02-10T01:39:33;11.50;;;3.67;;
27209;SDS011;14721;42.668;23.386;2023-02-10T01:41:59;7.77;;;2.67;;
27209;SDS011;14721;42.668;23.386;2023-02-10T01:46:52;9.83;;;4.30;;
27209;SDS011;14721;42.668;23.386;2023-02-10T01:49:20;5.53;;;3.30;;
27209;SDS011;14721;42.668;23.386;2023-02-10T01:51:54;9.30;;;4.20;;
27209;SDS011;14721;42.668;23.386;2023-02-10T01:54:30;8.83;;;5.20;;
27209;SDS011;14721;42.668;23.386;2023-02-10T01:56:58;10.37;;;3.90;;
27209;SDS011;14721;42.668;23.386;2023-02-10T01:59:32;6.17;;;2.27;;
27209;SDS011;14721;42.668;23.386;2023-02-10T02:02:00;8.33;;;3.20;;
27209;SDS011;14721;42.668;23.386;2023-02-10T02:04:33;7.47;;;4.60;;
27209;SDS011;14721;42.668;23.386;2023-02-10T02:07:08;6.13;;;4.03;;
27209;SDS011;14721;42.668;23.386;2023-02-10T02:09:33;9.20;;;3.07;;
27209;SDS011;14721;42.668;23.386;2023-02-10T02:14:41;7.40;;;3.47;;
27209;SDS011;14721;42.668;23.386;2023-02-10T02:34:00;5.30;;;2.80;;
27209;SDS011;14721;42.668;23.386;2023-02-10T02:36:33;9.27;;;3.73;;
27209;SDS011;14721;42.668;23.386;2023-02-10T02:39:03;7.70;;;3.43;;
27209;SDS011;14721;42.668;23.386;2023-02-10T02:41:30;11.10;;;4.00;;
27209;SDS011;14721;42.668;23.386;2023-02-10T02:43:57;6.17;;;3.07;;
27209;SDS011;14721;42.668;23.386;2023-02-10T02:46:28;11.10;;;6.20;;
27209;SDS011;14721;42.668;23.386;2023-02-10T02:49:34;5.77;;;3.50;;
27209;SDS011;14721;42.668;23.386;2023-02-10T02:52:11;10.53;;;4.67;;
27209;SDS011;14721;42.668;23.386;2023-02-10T02:57:27;9.03;;;3.97;;
27209;SDS011;14721;42.668;23.386;2023-02-10T03:00:26;11.43;;;4.23;;
27209;SDS011;14721;42.668;23.386;2023-02-10T03:02:54;13.87;;;4.60;;
27209;SDS011;14721;42.668;23.386;2023-02-10T03:05:23;8.17;;;4.83;;
27209;SDS011;14721;42.668;23.386;2023-02-10T03:07:52;13.37;;;4.77;;
27209;SDS011;14721;42.668;23.386;2023-02-10T03:10:18;9.27;;;5.43;;
27209;SDS011;14721;42.668;23.386;2023-02-10T03:12:44;9.77;;;5.53;;
27209;SDS011;14721;42.668;23.386;2023-02-10T03:15:09;6.47;;;4.43;;
27209;SDS011;14721;42.668;23.386;2023-02-10T03:17:36;10.90;;;4.07;;
27209;SDS011;14721;42.668;23.386;2023-02-10T03:20:01;12.17;;;4.93;;
27209;SDS011;14721;42.668;23.386;2023-02-10T03:22:27;8.30;;;4.23;;
27209;SDS011;14721;42.668;23.386;2023-02-10T03:24:53;7.50;;;3.60;;
27209;SDS011;14721;42.668;23.386;2023-02-10T03:27:18;5.60;;;2.90;;
27209;SDS011;14721;42.668;23.386;2023-02-10T03:29:44;15.93;;;4.97;;
27209;SDS011;14721;42.668;23.386;2023-02-10T03:32:09;8.70;;;3.83;;
27209;SDS011;14721;42.668;23.386;2023-02-10T03:34:35;10.73;;;3.63;;
27209;SDS011;14721;42.668;23.386;2023-02-10T03:37:01;10.03;;;5.73;;
27209;SDS011;14721;42.668;23.386;2023-02-10T03:39:26;7.53;;;4.63;;
27209;SDS011;14721;42.668;23.386;2023-02-10T03:41:52;10.57;;;3.50;;
27209;SDS011;14721;42.668;23.386;2023-02-10T03:44:19;12.97;;;4.10;;
27209;SDS011;14721;42.668;23.386;2023-02-10T03:46:46;11.43;;;3.10;;
27209;SDS011;14721;42.668;23.386;2023-02-10T03:49:12;8.13;;;3.53;;
27209;SDS011;14721;42.668;23.386;2023-02-10T03:51:38;9.97;;;4.33;;
27209;SDS011;14721;42.668;23.386;2023-02-10T03:54:03;14.63;;;4.53;;
27209;SDS011;14721;42.668;23.386;2023-02-10T03:56:29;7.37;;;4.47;;
27209;SDS011;14721;42.668;23.386;2023-02-10T03:58:54;11.63;;;4.87;;
27209;SDS011;14721;42.668;23.386;2023-02-10T04:01:20;9.20;;;4.37;;
27209;SDS011;14721;42.668;23.386;2023-02-10T04:03:45;16.23;;;6.10;;
27209;SDS011;14721;42.668;23.386;2023-02-10T04:06:11;17.40;;;4.50;;
27209;SDS011;14721;42.668;23.386;2023-02-10T04:08:37;16.73;;;4.90;;
27209;SDS011;14721;42.668;23.386;2023-02-10T04:11:04;32.93;;;4.97;;
27209;SDS011;14721;42.668;23.386;2023-02-10T04:13:30;16.23;;;4.37;;
27209;SDS011;14721;42.668;23.386;2023-02-10T04:16:09;8.93;;;3.83;;
27209;SDS011;14721;42.668;23.386;2023-02-10T04:18:39;15.13;;;4.33;;
27209;SDS011;14721;42.668;23.386;2023-02-10T04:21:06;7.90;;;5.33;;
27209;SDS011;14721;42.668;23.386;2023-02-10T04:23:33;6.23;;;4.43;;
27209;SDS011;14721;42.668;23.386;2023-02-10T04:25:59;13.67;;;5.97;;
27209;SDS011;14721;42.668;23.386;2023-02-10T04:28:25;22.73;;;4.90;;
27209;SDS011;14721;42.668;23.386;2023-02-10T04:30:52;9.97;;;4.73;;
27209;SDS011;14721;42.668;23.386;2023-02-10T04:33:20;15.00;;;6.27;;
27209;SDS011;14721;42.668;23.386;2023-02-10T04:35:49;12.23;;;5.23;;
27209;SDS011;14721;42.668;23.386;2023-02-10T04:38:15;9.67;;;5.80;;
27209;SDS011;14721;42.668;23.386;2023-02-10T04:40:41;12.27;;;4.87;;
27209;SDS011;14721;42.668;23.386;2023-02-10T04:43:08;14.40;;;4.90;;
27209;SDS011;14721;42.668;23.386;2023-02-10T04:45:36;12.20;;;5.77;;
27209;SDS011;14721;42.668;23.386;2023-02-10T04:48:02;3.67;;;2.70;;
27209;SDS011;14721;42.668;23.386;2023-02-10T04:50:29;9.57;;;4.90;;
27209;SDS011;14721;42.668;23.386;2023-02-10T04:52:55;17.67;;;5.43;;
27209;SDS011;14721;42.668;23.386;2023-02-10T04:55:21;6.97;;;3.73;;
27209;SDS011;14721;42.668;23.386;2023-02-10T04:57:46;7.87;;;4.07;;
27209;SDS011;14721;42.668;23.386;2023-02-10T05:00:12;14.30;;;5.07;;
27209;SDS011;14721;42.668;23.386;2023-02-10T05:02:39;11.87;;;5.70;;
27209;SDS011;14721;42.668;23.386;2023-02-10T05:05:04;16.30;;;6.27;;
27209;SDS011;14721;42.668;23.386;2023-02-10T05:07:30;15.03;;;6.70;;
27209;SDS011;14721;42.668;23.386;2023-02-10T05:09:56;12.77;;;4.87;;
27209;SDS011;14721;42.668;23.386;2023-02-10T05:12:21;15.40;;;6.10;;
27209;SDS011;14721;42.668;23.386;2023-02-10T05:14:47;11.10;;;6.47;;
27209;SDS011;14721;42.668;23.386;2023-02-10T05:17:12;10.37;;;5.60;;
27209;SDS011;14721;42.668;23.386;2023-02-10T05:19:38;17.13;;;8.33;;
27209;SDS011;14721;42.668;23.386;2023-02-10T05:22:04;24.40;;;8.50;;
27209;SDS011;14721;42.668;23.386;2023-02-10T05:24:30;14.53;;;6.17;;
27209;SDS011;14721;42.668;23.386;2023-02-10T05:26:55;18.77;;;8.63;;
27209;SDS011;14721;42.668;23.386;2023-02-10T05:29:21;39.80;;;6.87;;
27209;SDS011;14721;42.668;23.386;2023-02-10T05:31:47;11.20;;;6.27;;
27209;SDS011;14721;42.668;23.386;2023-02-10T05:34:13;12.10;;;5.93;;
27209;SDS011;14721;42.668;23.386;2023-02-10T05:36:38;14.63;;;6.20;;
27209;SDS011;14721;42.668;23.386;2023-02-10T05:39:04;14.63;;;7.10;;
27209;SDS011;14721;42.668;23.386;2023-02-10T05:41:47;15.73;;;6.00;;
27209;SDS011;14721;42.668;23.386;2023-02-10T05:44:14;7.77;;;4.27;;
27209;SDS011;14721;42.668;23.386;2023-02-10T05:46:40;19.73;;;6.93;;
27209;SDS011;14721;42.668;23.386;2023-02-10T05:49:06;14.33;;;5.97;;
27209;SDS011;14721;42.668;23.386;2023-02-10T05:51:31;11.70;;;7.07;;
27209;SDS011;14721;42.668;23.386;2023-02-10T05:53:57;13.07;;;6.53;;
27209;SDS011;14721;42.668;23.386;2023-02-10T05:56:23;11.60;;;5.67;;
27209;SDS011;14721;42.668;23.386;2023-02-10T05:58:49;12.83;;;6.37;;
27209;SDS011;14721;42.668;23.386;2023-02-10T06:01:14;15.63;;;4.87;;
27209;SDS011;14721;42.668;23.386;2023-02-10T06:03:41;23.73;;;6.63;;
27209;SDS011;14721;42.668;23.386;2023-02-10T06:06:06;12.50;;;6.27;;
27209;SDS011;14721;42.668;23.386;2023-02-10T06:08:32;16.53;;;6.57;;
27209;SDS011;14721;42.668;23.386;2023-02-10T06:10:58;20.17;;;7.80;;
27209;SDS011;14721;42.668;23.386;2023-02-10T06:13:23;27.93;;;9.77;;
27209;SDS011;14721;42.668;23.386;2023-02-10T06:15:49;14.67;;;8.33;;
27209;SDS011;14721;42.668;23.386;2023-02-10T06:18:15;24.93;;;8.93;;
27209;SDS011;14721;42.668;23.386;2023-02-10T06:20:40;27.80;;;8.40;;
27209;SDS011;14721;42.668;23.386;2023-02-10T06:23:06;23.30;;;9.30;;
27209;SDS011;14721;42.668;23.386;2023-02-10T06:25:31;12.83;;;5.80;;
27209;SDS011;14721;42.668;23.386;2023-02-10T06:28:00;11.30;;;5.57;;
27209;SDS011;14721;42.668;23.386;2023-02-10T06:30:26;14.30;;;5.73;;
27209;SDS011;14721;42.668;23.386;2023-02-10T06:32:52;14.57;;;5.57;;
27209;SDS011;14721;42.668;23.386;2023-02-10T06:35:18;13.17;;;5.60;;
27209;SDS011;14721;42.668;23.386;2023-02-10T06:37:44;16.37;;;5.27;;
27209;SDS011;14721;42.668;23.386;2023-02-10T06:40:10;8.57;;;4.53;;
27209;SDS011;14721;42.668;23.386;2023-02-10T06:42:37;12.23;;;4.87;;
27209;SDS011;14721;42.668;23.386;2023-02-10T06:45:02;14.63;;;6.17;;
27209;SDS011;14721;42.668;23.386;2023-02-10T06:47:28;7.47;;;5.00;;
27209;SDS011;14721;42.668;23.386;2023-02-10T06:49:54;11.37;;;5.47;;
27209;SDS011;14721;42.668;23.386;2023-02-10T06:52:20;17.00;;;6.77;;
27209;SDS011;14721;42.668;23.386;2023-02-10T06:54:46;13.87;;;5.60;;
27209;SDS011;14721;42.668;23.386;2023-02-10T06:57:11;12.90;;;4.80;;
27209;SDS011;14721;42.668;23.386;2023-02-10T06:59:37;14.50;;;5.63;;
27209;SDS011;14721;42.668;23.386;2023-02-10T07:02:03;12.63;;;6.27;;
27209;SDS011;14721;42.668;23.386;2023-02-10T07:04:30;17.70;;;7.57;;
27209;SDS011;14721;42.668;23.386;2023-02-10T07:06:57;12.83;;;6.67;;
27209;SDS011;14721;42.668;23.386;2023-02-10T07:09:23;20.63;;;7.57;;
27209;SDS011;14721;42.668;23.386;2023-02-10T07:11:49;19.63;;;7.00;;
27209;SDS011;14721;42.668;23.386;2023-02-10T07:14:16;17.77;;;6.80;;
27209;SDS011;14721;42.668;23.386;2023-02-10T07:16:41;18.13;;;7.60;;
27209;SDS011;14721;42.668;23.386;2023-02-10T07:19:07;16.70;;;7.80;;
27209;SDS011;14721;42.668;23.386;2023-02-10T07:21:33;18.67;;;7.93;;
27209;SDS011;14721;42.668;23.386;2023-02-10T07:23:58;13.90;;;7.17;;
27209;SDS011;14721;42.668;23.386;2023-02-10T07:26:26;20.00;;;7.80;;
27209;SDS011;14721;42.668;23.386;2023-02-10T07:28:53;18.33;;;8.33;;
27209;SDS011;14721;42.668;23.386;2023-02-10T07:31:18;22.47;;;8.50;;
27209;SDS011;14721;42.668;23.386;2023-02-10T07:33:44;18.43;;;8.67;;
27209;SDS011;14721;42.668;23.386;2023-02-10T07:36:10;20.33;;;8.63;;
27209;SDS011;14721;42.668;23.386;2023-02-10T07:38:36;17.70;;;8.60;;
27209;SDS011;14721;42.668;23.386;2023-02-10T07:41:03;20.90;;;7.97;;
27209;SDS011;14721;42.668;23.386;2023-02-10T07:43:30;15.90;;;8.00;;
27209;SDS011;14721;42.668;23.386;2023-02-10T07:45:56;19.53;;;7.73;;
27209;SDS011;14721;42.668;23.386;2023-02-10T07:48:21;20.07;;;8.80;;
27209;SDS011;14721;42.668;23.386;2023-02-10T07:50:47;19.33;;;8.83;;
27209;SDS011;14721;42.668;23.386;2023-02-10T07:53:13;17.90;;;8.87;;
27209;SDS011;14721;42.668;23.386;2023-02-10T07:55:39;26.67;;;10.17;;
27209;SDS011;14721;42.668;23.386;2023-02-10T07:58:05;21.10;;;9.63;;
27209;SDS011;14721;42.668;23.386;2023-02-10T08:00:31;22.50;;;8.97;;
27209;SDS011;14721;42.668;23.386;2023-02-10T08:02:57;18.67;;;8.57;;
27209;SDS011;14721;42.668;23.386;2023-02-10T08:05:23;17.73;;;8.93;;
27209;SDS011;14721;42.668;23.386;2023-02-10T08:07:49;20.50;;;8.97;;
27209;SDS011;14721;42.668;23.386;2023-02-10T08:10:14;27.63;;;9.87;;
27209;SDS011;14721;42.668;23.386;2023-02-10T08:12:40;22.07;;;9.20;;
27209;SDS011;14721;42.668;23.386;2023-02-10T08:15:06;18.37;;;8.60;;
27209;SDS011;14721;42.668;23.386;2023-02-10T08:17:32;21.53;;;9.10;;
27209;SDS011;14721;42.668;23.386;2023-02-10T08:19:58;26.77;;;10.23;;
27209;SDS011;14721;42.668;23.386;2023-02-10T08:22:24;25.37;;;9.10;;
27209;SDS011;14721;42.668;23.386;2023-02-10T08:24:50;25.67;;;10.50;;
27209;SDS011;14721;42.668;23.386;2023-02-10T08:27:15;19.37;;;9.23;;
27209;SDS011;14721;42.668;23.386;2023-02-10T08:29:41;29.83;;;10.33;;
27209;SDS011;14721;42.668;23.386;2023-02-10T08:32:06;22.60;;;8.97;;
27209;SDS011;14721;42.668;23.386;2023-02-10T08:34:31;20.17;;;8.87;;
27209;SDS011;14721;42.668;23.386;2023-02-10T08:36:57;22.20;;;9.57;;
27209;SDS011;14721;42.668;23.386;2023-02-10T08:39:22;22.47;;;10.10;;
27209;SDS011;14721;42.668;23.386;2023-02-10T08:41:48;18.50;;;9.43;;
27209;SDS011;14721;42.668;23.386;2023-02-10T08:44:14;27.07;;;8.93;;
27209;SDS011;14721;42.668;23.386;2023-02-10T08:46:39;29.27;;;9.97;;
27209;SDS011;14721;42.668;23.386;2023-02-10T08:49:05;25.87;;;9.67;;
27209;SDS011;14721;42.668;23.386;2023-02-10T08:51:31;18.87;;;9.13;;
27209;SDS011;14721;42.668;23.386;2023-02-10T08:53:59;16.90;;;7.90;;
27209;SDS011;14721;42.668;23.386;2023-02-10T08:56:25;22.53;;;10.20;;
27209;SDS011;14721;42.668;23.386;2023-02-10T08:58:51;19.00;;;8.30;;
27209;SDS011;14721;42.668;23.386;2023-02-10T09:01:21;18.87;;;8.37;;
27209;SDS011;14721;42.668;23.386;2023-02-10T09:03:48;19.33;;;9.53;;
27209;SDS011;14721;42.668;23.386;2023-02-10T09:06:18;17.97;;;7.67;;
27209;SDS011;14721;42.668;23.386;2023-02-10T09:08:48;15.83;;;7.93;;
27209;SDS011;14721;42.668;23.386;2023-02-10T09:11:14;23.30;;;9.00;;
27209;SDS011;14721;42.668;23.386;2023-02-10T09:13:40;18.17;;;8.67;;
27209;SDS011;14721;42.668;23.386;2023-02-10T09:16:06;25.53;;;9.80;;
27209;SDS011;14721;42.668;23.386;2023-02-10T09:18:32;21.20;;;9.77;;
27209;SDS011;14721;42.668;23.386;2023-02-10T09:20:58;17.00;;;7.60;;
27209;SDS011;14721;42.668;23.386;2023-02-10T09:23:26;32.87;;;10.10;;
27209;SDS011;14721;42.668;23.386;2023-02-10T09:25:57;21.00;;;8.73;;
27209;SDS011;14721;42.668;23.386;2023-02-10T09:28:24;30.20;;;10.33;;
27209;SDS011;14721;42.668;23.386;2023-02-10T09:30:50;17.87;;;8.53;;
27209;SDS011;14721;42.668;23.386;2023-02-10T09:33:16;20.47;;;8.50;;
27209;SDS011;14721;42.668;23.386;2023-02-10T09:35:42;23.53;;;8.67;;
27209;SDS011;14721;42.668;23.386;2023-02-10T09:38:08;19.77;;;8.33;;
27209;SDS011;14721;42.668;23.386;2023-02-10T09:40:37;18.80;;;9.60;;
27209;SDS011;14721;42.668;23.386;2023-02-10T09:46:01;23.57;;;9.40;;
27209;SDS011;14721;42.668;23.386;2023-02-10T09:48:51;25.97;;;9.20;;
27209;SDS011;14721;42.668;23.386;2023-02-10T09:54:19;23.00;;;10.37;;
27209;SDS011;14721;42.668;23.386;2023-02-10T09:56:45;26.27;;;9.77;;
27209;SDS011;14721;42.668;23.386;2023-02-10T09:59:12;18.27;;;8.97;;
27209;SDS011;14721;42.668;23.386;2023-02-10T10:01:43;24.07;;;7.97;;
27209;SDS011;14721;42.668;23.386;2023-02-10T10:04:15;23.13;;;9.37;;
27209;SDS011;14721;42.668;23.386;2023-02-10T10:06:43;26.20;;;10.90;;
27209;SDS011;14721;42.668;23.386;2023-02-10T10:14:16;22.93;;;11.60;;
27209;SDS011;14721;42.668;23.386;2023-02-10T10:17:40;22.70;;;9.47;;
27209;SDS011;14721;42.668;23.386;2023-02-10T10:31:27;28.50;;;10.23;;
27209;SDS011;14721;42.668;23.386;2023-02-10T10:33:59;22.00;;;10.03;;
27209;SDS011;14721;42.668;23.386;2023-02-10T10:36:37;24.27;;;11.83;;
27209;SDS011;14721;42.668;23.386;2023-02-10T10:39:23;14.07;;;6.70;;
27209;SDS011;14721;42.668;23.386;2023-02-10T10:41:51;23.97;;;9.20;;
27209;SDS011;14721;42.668;23.386;2023-02-10T10:44:18;29.87;;;10.30;;
27209;SDS011;14721;42.668;23.386;2023-02-10T10:49:26;21.47;;;9.80;;
27209;SDS011;14721;42.668;23.386;2023-02-10T10:51:52;25.80;;;9.97;;
27209;SDS011;14721;42.668;23.386;2023-02-10T10:54:18;29.70;;;9.00;;
27209;SDS011;14721;42.668;23.386;2023-02-10T10:56:50;21.67;;;9.90;;
27209;SDS011;14721;42.668;23.386;2023-02-10T10:59:27;23.17;;;10.03;;
27209;SDS011;14721;42.668;23.386;2023-02-10T11:01:58;20.53;;;8.03;;
27209;SDS011;14721;42.668;23.386;2023-02-10T11:04:24;23.17;;;7.70;;
27209;SDS011;14721;42.668;23.386;2023-02-10T11:06:54;21.77;;;9.10;;
27209;SDS011;14721;42.668;23.386;2023-02-10T11:11:53;20.00;;;9.13;;
27209;SDS011;14721;42.668;23.386;2023-02-10T11:14:27;16.30;;;7.43;;
27209;SDS011;14721;42.668;23.386;2023-02-10T11:16:57;19.87;;;7.87;;
27209;SDS011;14721;42.668;23.386;2023-02-10T11:19:29;19.90;;;7.50;;
27209;SDS011;14721;42.668;23.386;2023-02-10T11:21:59;13.43;;;7.10;;
27209;SDS011;14721;42.668;23.386;2023-02-10T11:24:29;18.07;;;7.80;;
27209;SDS011;14721;42.668;23.386;2023-02-10T11:26:57;24.80;;;8.77;;
27209;SDS011;14721;42.668;23.386;2023-02-10T11:29:25;21.73;;;6.60;;
27209;SDS011;14721;42.668;23.386;2023-02-10T11:31:52;16.33;;;7.57;;
27209;SDS011;14721;42.668;23.386;2023-02-10T11:36:47;18.30;;;6.83;;
27209;SDS011;14721;42.668;23.386;2023-02-10T11:39:23;14.70;;;6.53;;
27209;SDS011;14721;42.668;23.386;2023-02-10T11:41:52;13.67;;;6.33;;
27209;SDS011;14721;42.668;23.386;2023-02-10T11:44:27;23.53;;;8.00;;
27209;SDS011;14721;42.668;23.386;2023-02-10T11:46:55;18.13;;;7.80;;
27209;SDS011;14721;42.668;23.386;2023-02-10T11:49:22;16.97;;;7.93;;
27209;SDS011;14721;42.668;23.386;2023-02-10T11:51:53;15.00;;;7.33;;
27209;SDS011;14721;42.668;23.386;2023-02-10T11:54:20;17.37;;;7.87;;
27209;SDS011;14721;42.668;23.386;2023-02-10T11:59:59;22.53;;;9.50;;
27209;SDS011;14721;42.668;23.386;2023-02-10T12:10:59;22.83;;;9.73;;
27209;SDS011;14721;42.668;23.386;2023-02-10T12:30:04;19.97;;;9.77;;
27209;SDS011;14721;42.668;23.386;2023-02-10T12:32:41;20.43;;;9.70;;
27209;SDS011;14721;42.668;23.386;2023-02-10T12:38:20;18.10;;;8.83;;
27209;SDS011;14721;42.668;23.386;2023-02-10T12:53:12;20.03;;;8.17;;
27209;SDS011;14721;42.668;23.386;2023-02-10T12:58:27;20.33;;;9.83;;
27209;SDS011;14721;42.668;23.386;2023-02-10T13:03:54;19.90;;;8.97;;
27209;SDS011;14721;42.668;23.386;2023-02-10T13:06:34;22.03;;;8.87;;
27209;SDS011;14721;42.668;23.386;2023-02-10T13:12:02;17.03;;;8.03;;
27209;SDS011;14721;42.668;23.386;2023-02-10T13:14:38;20.57;;;9.70;;
27209;SDS011;14721;42.668;23.386;2023-02-10T13:17:08;17.87;;;9.00;;
27209;SDS011;14721;42.668;23.386;2023-02-10T13:19:55;20.27;;;8.30;;
27209;SDS011;14721;42.668;23.386;2023-02-10T13:25:15;16.97;;;8.33;;
27209;SDS011;14721;42.668;23.386;2023-02-10T13:36:25;21.50;;;8.17;;
27209;SDS011;14721;42.668;23.386;2023-02-10T13:39:26;18.20;;;8.23;;
27209;SDS011;14721;42.668;23.386;2023-02-10T13:41:47;24.67;;;9.63;;
27209;SDS011;14721;42.668;23.386;2023-02-10T13:44:18;19.87;;;8.33;;
27209;SDS011;14721;42.668;23.386;2023-02-10T13:49:36;19.53;;;8.77;;
27209;SDS011;14721;42.668;23.386;2023-02-10T13:52:16;21.27;;;9.20;;
27209;SDS011;14721;42.668;23.386;2023-02-10T13:54:55;18.63;;;9.13;;
27209;SDS011;14721;42.668;23.386;2023-02-10T13:57:30;20.73;;;9.33;;
27209;SDS011;14721;42.668;23.386;2023-02-10T14:00:14;29.53;;;10.60;;
27209;SDS011;14721;42.668;23.386;2023-02-10T14:02:40;21.27;;;9.37;;
27209;SDS011;14721;42.668;23.386;2023-02-10T14:08:34;14.53;;;6.97;;
27209;SDS011;14721;42.668;23.386;2023-02-10T14:13:41;23.30;;;9.57;;
27209;SDS011;14721;42.668;23.386;2023-02-10T14:18:39;24.17;;;9.70;;
27209;SDS011;14721;42.668;23.386;2023-02-10T14:23:36;22.83;;;10.27;;
27209;SDS011;14721;42.668;23.386;2023-02-10T14:26:07;32.47;;;12.10;;
27209;SDS011;14721;42.668;23.386;2023-02-10T14:28:41;22.37;;;10.07;;
27209;SDS011;14721;42.668;23.386;2023-02-10T14:31:12;25.90;;;10.60;;
27209;SDS011;14721;42.668;23.386;2023-02-10T14:33:42;25.83;;;9.80;;
27209;SDS011;14721;42.668;23.386;2023-02-10T14:36:18;26.60;;;9.73;;
27209;SDS011;14721;42.668;23.386;2023-02-10T14:38:44;25.80;;;11.17;;
27209;SDS011;14721;42.668;23.386;2023-02-10T14:41:15;23.87;;;11.07;;
27209;SDS011;14721;42.668;23.386;2023-02-10T14:43:41;26.03;;;10.87;;
27209;SDS011;14721;42.668;23.386;2023-02-10T14:46:07;27.33;;;11.43;;
27209;SDS011;14721;42.668;23.386;2023-02-10T14:48:44;32.93;;;11.63;;
27209;SDS011;14721;42.668;23.386;2023-02-10T14:51:20;27.80;;;11.07;;
27209;SDS011;14721;42.668;23.386;2023-02-10T14:53:47;24.00;;;10.07;;
27209;SDS011;14721;42.668;23.386;2023-02-10T14:56:24;26.93;;;11.00;;
27209;SDS011;14721;42.668;23.386;2023-02-10T14:58:51;21.50;;;9.60;;
27209;SDS011;14721;42.668;23.386;2023-02-10T15:01:24;23.63;;;11.23;;
27209;SDS011;14721;42.668;23.386;2023-02-10T15:03:50;21.20;;;10.63;;
27209;SDS011;14721;42.668;23.386;2023-02-10T15:06:17;20.43;;;10.20;;
27209;SDS011;14721;42.668;23.386;2023-02-10T15:08:46;29.83;;;10.57;;
27209;SDS011;14721;42.668;23.386;2023-02-10T15:12:05;28.13;;;11.90;;
27209;SDS011;14721;42.668;23.386;2023-02-10T15:14:27;29.43;;;11.50;;
27209;SDS011;14721;42.668;23.386;2023-02-10T15:16:59;27.43;;;11.50;;
27209;SDS011;14721;42.668;23.386;2023-02-10T15:19:28;22.03;;;8.63;;
27209;SDS011;14721;42.668;23.386;2023-02-10T15:21:54;22.90;;;11.00;;
27209;SDS011;14721;42.668;23.386;2023-02-10T15:24:20;24.60;;;11.17;;
27209;SDS011;14721;42.668;23.386;2023-02-10T15:26:46;25.10;;;10.87;;
27209;SDS011;14721;42.668;23.386;2023-02-10T15:29:13;27.67;;;10.17;;
27209;SDS011;14721;42.668;23.386;2023-02-10T15:31:40;24.13;;;11.73;;
27209;SDS011;14721;42.668;23.386;2023-02-10T15:34:18;26.93;;;11.67;;
27209;SDS011;14721;42.668;23.386;2023-02-10T15:36:49;28.00;;;13.07;;
27209;SDS011;14721;42.668;23.386;2023-02-10T15:39:23;28.30;;;11.93;;
27209;SDS011;14721;42.668;23.386;2023-02-10T15:44:43;32.03;;;11.80;;
27209;SDS011;14721;42.668;23.386;2023-02-10T15:49:44;34.73;;;13.10;;
27209;SDS011;14721;42.668;23.386;2023-02-10T15:52:20;35.73;;;14.47;;
27209;SDS011;14721;42.668;23.386;2023-02-10T15:54:56;36.90;;;13.50;;
27209;SDS011;14721;42.668;23.386;2023-02-10T15:57:25;40.00;;;14.63;;
27209;SDS011;14721;42.668;23.386;2023-02-10T15:59:51;38.20;;;14.47;;
27209;SDS011;14721;42.668;23.386;2023-02-10T16:02:19;28.67;;;13.40;;
27209;SDS011;14721;42.668;23.386;2023-02-10T16:04:45;34.60;;;14.33;;
27209;SDS011;14721;42.668;23.386;2023-02-10T16:07:13;30.17;;;14.40;;
27209;SDS011;14721;42.668;23.386;2023-02-10T16:09:44;32.77;;;13.63;;
27209;SDS011;14721;42.668;23.386;2023-02-10T16:12:10;35.50;;;14.00;;
27209;SDS011;14721;42.668;23.386;2023-02-10T16:14:36;32.37;;;12.87;;
27209;SDS011;14721;42.668;23.386;2023-02-10T16:17:01;47.73;;;15.67;;
27209;SDS011;14721;42.668;23.386;2023-02-10T16:19:28;28.30;;;13.63;;
27209;SDS011;14721;42.668;23.386;2023-02-10T16:21:54;36.93;;;15.97;;
27209;SDS011;14721;42.668;23.386;2023-02-10T16:24:22;47.33;;;16.30;;
27209;SDS011;14721;42.668;23.386;2023-02-10T16:26:49;39.77;;;16.07;;
27209;SDS011;14721;42.668;23.386;2023-02-10T16:29:16;35.47;;;16.50;;
27209;SDS011;14721;42.668;23.386;2023-02-10T16:31:46;45.93;;;15.10;;
27209;SDS011;14721;42.668;23.386;2023-02-10T16:34:12;38.97;;;14.30;;
27209;SDS011;14721;42.668;23.386;2023-02-10T16:36:38;30.70;;;12.70;;
27209;SDS011;14721;42.668;23.386;2023-02-10T16:39:05;51.93;;;16.40;;
27209;SDS011;14721;42.668;23.386;2023-02-10T16:41:33;29.07;;;14.43;;
27209;SDS011;14721;42.668;23.386;2023-02-10T16:43:59;44.67;;;15.83;;
27209;SDS011;14721;42.668;23.386;2023-02-10T16:46:24;40.90;;;14.30;;